Time;durP1;ratioP1;P1;durP2;ratioP2;P2;SDS_P1;SDS_P2;PMS_P1;PMS_P2;Temp;Humidity;BMP_temperature;BMP_pressure;BME280_temperature;BME280_humidity;BME280_pressure;Samples;Min_cycle;Max_cycle;Signal;HPM_P1;HPM_P2
2023/11/20 00:01:28;;;;;;;22.80;14.80;;;;;;;;;;6218488;28;20058;-96
2023/11/20 00:04:33;;;;;;;26.77;15.52;;;;;;;;;;6217033;28;20073;-96
2023/11/20 00:07:35;;;;;;;23.58;15.15;;;;;;;;;;6217777;28;20060;-96
2023/11/20 00:10:39;;;;;;;22.52;15.68;;;;;;;;;;6215632;28;20053;-96
2023/11/20 00:13:41;;;;;;;24.63;15.90;;;;;;;;;;6204583;28;20052;-96
2023/11/20 00:16:43;;;;;;;25.38;16.70;;;;;;;;;;6223108;28;20050;-96
2023/11/20 00:19:47;;;;;;;25.92;17.35;;;;;;;;;;6219610;28;20054;-96
2023/11/20 00:22:49;;;;;;;;;;;;;;;;;;6220150;28;20050;-95
2023/11/20 00:25:51;;;;;;;25.30;16.38;;;;;;;;;;6188269;28;20066;-96
2023/11/20 00:28:56;;;;;;;26.75;17.35;;;;;;;;;;6204003;28;20046;-96
2023/11/20 00:31:59;;;;;;;30.92;18.30;;;;;;;;;;6224611;28;20050;-96
2023/11/20 00:35:02;;;;;;;25.52;17.27;;;;;;;;;;6223949;28;20397;-96
2023/11/20 00:38:05;;;;;;;28.42;18.85;;;;;;;;;;6212824;28;20054;-93
2023/11/20 00:41:07;;;;;;;32.08;18.58;;;;;;;;;;6218736;28;20050;-94
2023/11/20 00:44:13;;;;;;;29.05;17.58;;;;;;;;;;6222990;28;20057;-96
2023/11/20 00:47:15;;;;;;;28.50;18.15;;;;;;;;;;6219134;28;20242;-95
2023/11/20 00:50:18;;;;;;;31.13;18.45;;;;;;;;;;6227100;28;20046;-96
2023/11/20 00:53:21;;;;;;;31.93;19.87;;;;;;;;;;6226248;28;20315;-96
2023/11/20 00:56:23;;;;;;;27.95;17.55;;;;;;;;;;6224763;28;20120;-96
2023/11/20 00:59:26;;;;;;;28.80;17.88;;;;;;;;;;6226272;28;20057;-96
2023/11/20 01:02:30;;;;;;;32.08;17.75;;;;;;;;;;6205075;28;20355;-96
2023/11/20 01:05:34;;;;;;;29.67;17.85;;;;;;;;;;6224585;28;20058;-96
2023/11/20 01:08:36;;;;;;;29.33;18.45;;;;;;;;;;6224174;28;20058;-96
2023/11/20 01:11:38;;;;;;;31.63;18.52;;;;;;;;;;6224672;28;20121;-96
2023/11/20 01:14:40;;;;;;;32.03;18.08;;;;;;;;;;6224077;28;20062;-96
2023/11/20 01:17:42;;;;;;;30.13;18.42;;;;;;;;;;6224532;28;20054;-96
2023/11/20 01:20:46;;;;;;;29.27;18.85;;;;;;;;;;6223355;28;20414;-95
2023/11/20 01:23:48;;;;;;;29.67;17.92;;;;;;;;;;6207692;28;20054;-94
2023/11/20 01:26:53;;;;;;;26.10;17.42;;;;;;;;;;6206483;28;20065;-95
2023/11/20 01:29:55;;;;;;;27.45;17.77;;;;;;;;;;6219685;28;20054;-96
2023/11/20 01:32:58;;;;;;;28.33;18.77;;;;;;;;;;6230197;28;20061;-96
2023/11/20 01:36:02;;;;;;;31.15;19.30;;;;;;;;;;6221125;28;20125;-96
2023/11/20 01:39:05;;;;;;;29.23;18.83;;;;;;;;;;6228528;28;20080;-96
2023/11/20 01:42:07;;;;;;;30.20;19.65;;;;;;;;;;6219049;28;20061;-96
2023/11/20 01:45:11;;;;;;;33.45;19.30;;;;;;;;;;6227978;28;20041;-96
2023/11/20 01:48:13;;;;;;;27.52;18.08;;;;;;;;;;6222319;28;20050;-96
2023/11/20 01:51:16;;;;;;;26.88;17.42;;;;;;;;;;6224226;28;20070;-95
2023/11/20 01:54:18;;;;;;;30.88;18.55;;;;;;;;;;6220389;28;20244;-96
2023/11/20 01:57:21;;;;;;;29.90;18.58;;;;;;;;;;6206283;28;20077;-96
2023/11/20 02:00:24;;;;;;;33.58;18.92;;;;;;;;;;6226457;28;20053;-96
2023/11/20 02:03:26;;;;;;;31.08;19.20;;;;;;;;;;6225193;28;20053;-96
2023/11/20 02:06:30;;;;;;;31.13;18.33;;;;;;;;;;6218445;28;20074;-96
2023/11/20 02:09:32;;;;;;;27.17;18.02;;;;;;;;;;6224742;28;20211;-96
2023/11/20 02:12:35;;;;;;;28.08;17.83;;;;;;;;;;6219517;28;20042;-96
2023/11/20 02:15:39;;;;;;;28.85;18.02;;;;;;;;;;6201135;28;20042;-96
2023/11/20 02:18:41;;;;;;;27.65;17.70;;;;;;;;;;6228699;28;20058;-96
2023/11/20 02:21:45;;;;;;;26.73;18.17;;;;;;;;;;6225717;28;20240;-96
2023/11/20 02:24:48;;;;;;;23.88;17.23;;;;;;;;;;6217613;28;20055;-96
2023/11/20 02:27:57;;;;;;;28.05;16.30;;;;;;;;;;6225961;28;20112;-95
2023/11/20 02:31:20;;;;;;;31.23;17.17;;;;;;;;;;6197011;28;20049;-96
2023/11/20 02:34:23;;;;;;;26.20;16.27;;;;;;;;;;6201799;28;20046;-96
2023/11/20 02:37:27;;;;;;;24.23;16.17;;;;;;;;;;6215267;28;20252;-96
2023/11/20 02:40:29;;;;;;;27.77;16.63;;;;;;;;;;6195360;28;20056;-96
2023/11/20 02:43:31;;;;;;;25.08;16.40;;;;;;;;;;6202855;28;20054;-96
2023/11/20 02:46:34;;;;;;;25.95;15.98;;;;;;;;;;6216402;28;20057;-96
2023/11/20 02:49:36;;;;;;;26.60;15.90;;;;;;;;;;6226959;28;20061;-96
2023/11/20 02:52:39;;;;;;;24.00;14.95;;;;;;;;;;6217828;28;20641;-96
2023/11/20 02:55:40;;;;;;;22.98;14.18;;;;;;;;;;6223386;28;20050;-96
2023/11/20 02:58:42;;;;;;;24.92;15.18;;;;;;;;;;6223811;28;20117;-96
2023/11/20 03:01:48;;;;;;;29.65;14.90;;;;;;;;;;6207295;28;20054;-96
2023/11/20 03:04:55;;;;;;;23.67;14.95;;;;;;;;;;6215912;28;20254;-96
2023/11/20 03:07:57;;;;;;;23.48;14.55;;;;;;;;;;6208257;28;20050;-96
2023/11/20 03:11:00;;;;;;;21.58;14.55;;;;;;;;;;6226761;28;20106;-95
2023/11/20 03:14:01;;;;;;;23.77;14.15;;;;;;;;;;6207910;28;20061;-95
2023/11/20 03:17:06;;;;;;;22.48;13.73;;;;;;;;;;6232382;28;20108;-96
2023/11/20 03:20:08;;;;;;;;;;;;;;;;;;6207853;28;20062;-95
2023/11/20 03:23:13;;;;;;;20.27;12.07;;;;;;;;;;6226858;28;19999;-96
2023/11/20 03:26:15;;;;;;;22.90;13.30;;;;;;;;;;6203931;28;20168;-96
2023/11/20 03:29:17;;;;;;;24.20;13.25;;;;;;;;;;6182144;28;20109;-96
2023/11/20 03:32:21;;;;;;;22.58;14.07;;;;;;;;;;6213420;28;20041;-92
2023/11/20 03:35:23;;;;;;;24.70;13.35;;;;;;;;;;6210654;28;20057;-96
2023/11/20 03:38:25;;;;;;;19.88;14.00;;;;;;;;;;6223149;28;20330;-96
2023/11/20 03:41:27;;;;;;;17.05;12.10;;;;;;;;;;6208007;28;20049;-96
2023/11/20 03:44:30;;;;;;;18.17;13.38;;;;;;;;;;6233877;28;20080;-96
2023/11/20 03:50:49;;;;;;;19.10;12.75;;;;;;;;;;6211066;28;20053;-96
2023/11/20 03:53:51;;;;;;;20.88;12.70;;;;;;;;;;6231252;28;20149;-96
2023/11/20 03:56:53;;;;;;;19.25;12.90;;;;;;;;;;6228202;28;20064;-96
2023/11/20 03:59:55;;;;;;;18.75;12.05;;;;;;;;;;6223239;28;20089;-96
2023/11/20 04:06:14;;;;;;;19.05;10.98;;;;;;;;;;6211189;28;20097;-96
2023/11/20 04:09:17;;;;;;;18.42;11.65;;;;;;;;;;6221507;28;20072;-95
2023/11/20 04:12:18;;;;;;;17.20;11.10;;;;;;;;;;6228965;28;20054;-96
2023/11/20 04:15:20;;;;;;;23.13;11.38;;;;;;;;;;6227856;28;20219;-96
2023/11/20 04:18:24;;;;;;;16.25;10.57;;;;;;;;;;6221676;28;20065;-96
2023/11/20 04:21:26;;;;;;;14.85;9.60;;;;;;;;;;6176512;28;20050;-95
2023/11/20 04:24:29;;;;;;;17.38;10.77;;;;;;;;;;6229228;28;20137;-96
2023/11/20 04:27:30;;;;;;;19.77;10.40;;;;;;;;;;6199549;28;20054;-96
2023/11/20 04:30:33;;;;;;;17.27;9.98;;;;;;;;;;6196298;28;20053;-96
2023/11/20 04:33:37;;;;;;;16.00;10.38;;;;;;;;;;6223665;28;20323;-95
2023/11/20 04:40:15;;;;;;;13.85;8.63;;;;;;;;;;6187068;28;20253;-96
2023/11/20 04:43:17;;;;;;;15.25;9.02;;;;;;;;;;6227881;28;20077;-96
2023/11/20 04:46:20;;;;;;;17.80;10.10;;;;;;;;;;6194408;28;20054;-96
2023/11/20 04:49:26;;;;;;;20.55;10.43;;;;;;;;;;6204624;28;20056;-96
2023/11/20 04:52:28;;;;;;;22.80;10.40;;;;;;;;;;6227149;28;20048;-96
2023/11/20 04:55:30;;;;;;;14.32;8.63;;;;;;;;;;6211389;28;20053;-96
2023/11/20 04:58:32;;;;;;;20.27;10.32;;;;;;;;;;6206090;28;20393;-96
2023/11/20 05:01:35;;;;;;;21.90;9.43;;;;;;;;;;6198890;28;20072;-97
2023/11/20 05:04:38;;;;;;;15.00;9.25;;;;;;;;;;6195516;28;20150;-96
2023/11/20 05:07:43;;;;;;;17.83;10.43;;;;;;;;;;6216182;28;20323;-96
2023/11/20 05:10:57;;;;;;;15.10;9.60;;;;;;;;;;6206376;28;20076;-96
2023/11/20 05:14:00;;;;;;;18.23;9.00;;;;;;;;;;6200505;28;20247;-96
2023/11/20 05:17:06;;;;;;;14.20;9.63;;;;;;;;;;6192537;28;20164;-96
2023/11/20 05:20:13;;;;;;;18.45;9.45;;;;;;;;;;6214326;28;20077;-96
2023/11/20 05:23:38;;;;;;;19.08;11.05;;;;;;;;;;6175306;28;20078;-96
2023/11/20 05:26:42;;;;;;;15.95;10.57;;;;;;;;;;6214089;28;20060;-96
2023/11/20 05:29:58;;;;;;;16.58;10.43;;;;;;;;;;6202832;28;20050;-96
2023/11/20 05:33:04;;;;;;;18.80;10.90;;;;;;;;;;6174413;28;20048;-96
2023/11/20 05:36:12;;;;;;;20.55;10.60;;;;;;;;;;6202167;28;20121;-96
2023/11/20 05:39:20;;;;;;;13.95;9.60;;;;;;;;;;6205035;28;20121;-96
2023/11/20 05:42:26;;;;;;;16.15;9.77;;;;;;;;;;6221103;28;20053;-96
2023/11/20 05:45:35;;;;;;;14.32;9.15;;;;;;;;;;6187085;28;20041;-96
2023/11/20 05:48:48;;;;;;;13.50;8.50;;;;;;;;;;6167358;28;20069;-96
2023/11/20 05:55:26;;;;;;;16.33;8.40;;;;;;;;;;6138427;28;20082;-96
2023/11/20 05:58:32;;;;;;;16.90;9.23;;;;;;;;;;6175745;28;20052;-96
2023/11/20 06:05:08;;;;;;;12.40;8.18;;;;;;;;;;6198695;28;20050;-96
2023/11/20 06:11:36;;;;;;;13.98;8.50;;;;;;;;;;6203234;28;20330;-96
2023/11/20 06:14:44;;;;;;;12.00;7.95;;;;;;;;;;6182549;28;20057;-96
2023/11/20 06:21:10;;;;;;;15.82;10.10;;;;;;;;;;6201400;28;20088;-96
2023/11/20 06:28:13;;;;;;;17.02;10.43;;;;;;;;;;6099631;28;20051;-96
2023/11/20 06:31:18;;;;;;;16.60;10.88;;;;;;;;;;6111517;28;20046;-96
2023/11/20 06:34:22;;;;;;;18.42;11.55;;;;;;;;;;6118930;28;20047;-96
2023/11/20 06:37:32;;;;;;;15.68;11.32;;;;;;;;;;6176833;28;20150;-96
2023/11/20 06:44:29;;;;;;;;;;;;;;;;;;6134212;28;20050;-96
2023/11/20 06:47:31;;;;;;;24.90;13.93;;;;;;;;;;6158957;28;20014;-96
2023/11/20 06:50:36;;;;;;;18.38;13.55;;;;;;;;;;6188899;28;20055;-96
2023/11/20 06:54:01;;;;;;;30.00;14.32;;;;;;;;;;6173824;28;20037;-96
2023/11/20 07:00:45;;;;;;;22.45;14.65;;;;;;;;;;6047509;29;20081;-96
2023/11/20 07:03:55;;;;;;;20.67;13.73;;;;;;;;;;6018201;29;20161;-96
2023/11/20 07:21:14;;;;;;;24.00;14.82;;;;;;;;;;6026200;29;20045;-96
2023/11/20 07:24:25;;;;;;;25.33;15.75;;;;;;;;;;6006856;29;20069;-96
2023/11/20 07:27:48;;;;;;;23.05;14.98;;;;;;;;;;6034312;29;20034;-95
2023/11/20 07:34:10;;;;;;;24.90;15.57;;;;;;;;;;5998337;29;20053;-96
2023/11/20 07:37:13;;;;;;;29.10;15.27;;;;;;;;;;6057070;29;20055;-96
2023/11/20 07:40:15;;;;;;;24.08;15.07;;;;;;;;;;6133345;28;20061;-96
2023/11/20 07:43:23;;;;;;;25.73;16.08;;;;;;;;;;6155301;28;20247;-96
2023/11/20 07:46:27;;;;;;;26.05;15.77;;;;;;;;;;6153517;28;20068;-96
2023/11/20 07:49:31;;;;;;;22.23;15.18;;;;;;;;;;6153259;28;20047;-96
2023/11/20 07:52:33;;;;;;;21.90;15.18;;;;;;;;;;6188273;28;20103;-95
2023/11/20 07:55:55;;;;;;;22.50;15.73;;;;;;;;;;6212013;28;20057;-96
2023/11/20 08:05:45;;;;;;;24.23;16.25;;;;;;;;;;6198462;28;20270;-96
2023/11/20 08:08:49;;;;;;;23.85;15.05;;;;;;;;;;6222828;28;20073;-96
2023/11/20 08:11:51;;;;;;;23.63;16.27;;;;;;;;;;6203845;28;20096;-96
2023/11/20 08:14:56;;;;;;;23.38;15.77;;;;;;;;;;6220142;28;20133;-96
2023/11/20 08:18:00;;;;;;;26.38;15.85;;;;;;;;;;6217444;28;20045;-96
2023/11/20 08:21:02;;;;;;;24.50;16.25;;;;;;;;;;6186742;28;20062;-96
2023/11/20 08:24:07;;;;;;;22.95;16.70;;;;;;;;;;6227440;28;20050;-95
2023/11/20 08:27:11;;;;;;;25.67;16.88;;;;;;;;;;6201936;28;20145;-96
2023/11/20 08:30:23;;;;;;;26.08;17.40;;;;;;;;;;6220708;28;20081;-96
2023/11/20 08:33:28;;;;;;;27.15;17.95;;;;;;;;;;6189186;28;20536;-96
2023/11/20 08:36:31;;;;;;;28.40;18.67;;;;;;;;;;6208488;28;20077;-96
2023/11/20 08:39:35;;;;;;;29.25;18.58;;;;;;;;;;6219600;28;20053;-96
2023/11/20 08:42:37;;;;;;;27.48;18.50;;;;;;;;;;6217282;28;20231;-96
2023/11/20 08:45:39;;;;;;;29.15;19.08;;;;;;;;;;6222085;28;20326;-96
2023/11/20 08:48:43;;;;;;;26.30;18.10;;;;;;;;;;6212706;28;20212;-96
2023/11/20 08:51:45;;;;;;;27.58;18.55;;;;;;;;;;6170592;28;20050;-96
2023/11/20 08:54:47;;;;;;;27.23;18.70;;;;;;;;;;6218121;28;20062;-96
2023/11/20 08:57:52;;;;;;;27.67;18.85;;;;;;;;;;6204186;28;20054;-95
2023/11/20 09:04:12;;;;;;;27.55;18.70;;;;;;;;;;6142158;28;20065;-96
2023/11/20 09:07:14;;;;;;;29.83;18.08;;;;;;;;;;6220033;28;20061;-94
2023/11/20 09:10:16;;;;;;;34.30;20.40;;;;;;;;;;6224496;28;20056;-96
2023/11/20 09:13:19;;;;;;;26.85;19.10;;;;;;;;;;6218588;28;20052;-96
2023/11/20 09:16:21;;;;;;;27.92;18.50;;;;;;;;;;6216715;28;20100;-96
2023/11/20 09:19:26;;;;;;;27.48;20.45;;;;;;;;;;6220644;28;20045;-96
2023/11/20 09:22:29;;;;;;;27.67;19.45;;;;;;;;;;6204207;28;20049;-96
2023/11/20 09:25:31;;;;;;;27.75;19.65;;;;;;;;;;6221317;28;20042;-96
2023/11/20 09:28:33;;;;;;;28.88;19.67;;;;;;;;;;6215013;28;20096;-96
2023/11/20 09:31:42;;;;;;;30.88;19.85;;;;;;;;;;6194607;28;20096;-96
2023/11/20 09:34:47;;;;;;;30.70;19.58;;;;;;;;;;6202193;28;20065;-96
2023/11/20 09:37:52;;;;;;;26.85;18.42;;;;;;;;;;6198998;28;20308;-96
2023/11/20 09:41:24;;;;;;;30.33;19.30;;;;;;;;;;6205733;28;20053;-95
2023/11/20 09:47:54;;;;;;;41.00;20.85;;;;;;;;;;6185448;28;20050;-96
2023/11/20 09:50:58;;;;;;;29.05;19.67;;;;;;;;;;6207283;28;20386;-96
2023/11/20 09:54:02;;;;;;;33.38;19.38;;;;;;;;;;6217574;28;20199;-96
2023/11/20 09:57:06;;;;;;;27.27;19.40;;;;;;;;;;6216652;28;20073;-96
2023/11/20 10:03:26;;;;;;;27.48;19.27;;;;;;;;;;6185078;28;20219;-96
2023/11/20 10:06:31;;;;;;;25.25;17.92;;;;;;;;;;6205989;28;20386;-96
2023/11/20 10:09:34;;;;;;;25.95;17.27;;;;;;;;;;6210641;28;20064;-96
2023/11/20 10:12:36;;;;;;;24.25;17.95;;;;;;;;;;6202843;28;20052;-96
2023/11/20 10:15:40;;;;;;;27.52;18.67;;;;;;;;;;6217724;28;20050;-96
2023/11/20 10:18:43;;;;;;;24.38;17.80;;;;;;;;;;6207931;28;20422;-96
2023/11/20 10:28:27;;;;;;;26.30;19.10;;;;;;;;;;6209223;28;20050;-96
2023/11/20 10:31:43;;;;;;;29.83;21.40;;;;;;;;;;6184807;28;20053;-96
2023/11/20 10:34:49;;;;;;;29.10;19.67;;;;;;;;;;6189949;28;20050;-96
2023/11/20 10:41:31;;;;;;;26.70;19.17;;;;;;;;;;6221476;28;20263;-96
2023/11/20 10:47:57;;;;;;;26.67;20.13;;;;;;;;;;6215617;28;20046;-96
2023/11/20 10:57:56;;;;;;;29.10;20.40;;;;;;;;;;6159015;28;20078;-96
2023/11/20 11:01:01;;;;;;;33.05;20.38;;;;;;;;;;6171422;28;20057;-96
2023/11/20 11:04:13;;;;;;;35.15;20.70;;;;;;;;;;6221404;28;22341;-96
2023/11/20 11:07:17;;;;;;;32.88;19.98;;;;;;;;;;6221635;28;20054;-96
2023/11/20 11:10:25;;;;;;;33.15;20.98;;;;;;;;;;6218051;28;20049;-96
2023/11/20 11:13:32;;;;;;;30.80;21.55;;;;;;;;;;6217217;28;20361;-96
2023/11/20 11:16:39;;;;;;;31.73;22.80;;;;;;;;;;6201699;28;20118;-95
2023/11/20 11:19:46;;;;;;;32.30;22.88;;;;;;;;;;6219709;28;20354;-96
2023/11/20 11:29:43;;;;;;;77.78;45.10;;;;;;;;;;6221732;28;20050;-95
2023/11/20 11:33:04;;;;;;;80.05;44.03;;;;;;;;;;6219018;28;20140;-95
2023/11/20 11:36:26;;;;;;;56.88;36.83;;;;;;;;;;6204441;28;20387;-95
2023/11/20 11:39:42;;;;;;;36.53;25.48;;;;;;;;;;6206517;28;20060;-96
2023/11/20 11:43:09;;;;;;;33.40;23.30;;;;;;;;;;6174354;28;20340;-96
2023/11/20 11:46:12;;;;;;;31.73;22.65;;;;;;;;;;6220491;28;20046;-96
2023/11/20 11:52:37;;;;;;;31.70;23.75;;;;;;;;;;6206763;28;20065;-96
2023/11/20 11:55:51;;;;;;;37.20;24.00;;;;;;;;;;6220025;28;20120;-95
2023/11/20 12:06:21;;;;;;;33.67;23.92;;;;;;;;;;6220476;28;20111;-96
2023/11/20 12:09:54;;;;;;;32.95;24.08;;;;;;;;;;6190153;28;20037;-96
2023/11/20 12:13:08;;;;;;;31.70;23.40;;;;;;;;;;6173734;28;20066;-96
2023/11/20 12:16:13;;;;;;;37.33;25.55;;;;;;;;;;6225702;28;20118;-93
2023/11/20 12:19:17;;;;;;;54.28;33.17;;;;;;;;;;6219406;28;20539;-93
2023/11/20 12:22:19;;;;;;;71.97;40.10;;;;;;;;;;6199530;28;20446;-94
2023/11/20 12:25:21;;;;;;;42.60;27.60;;;;;;;;;;6216899;28;20069;-96
2023/11/20 12:28:25;;;;;;;32.80;22.55;;;;;;;;;;6224422;28;20042;-96
2023/11/20 12:34:51;;;;;;;32.45;22.67;;;;;;;;;;6216423;28;20050;-96
2023/11/20 12:37:56;;;;;;;30.50;22.58;;;;;;;;;;6217720;28;20359;-96
2023/11/20 12:41:03;;;;;;;29.55;21.63;;;;;;;;;;6221519;28;20058;-96
2023/11/20 12:44:06;;;;;;;32.88;22.67;;;;;;;;;;6227198;28;20038;-95
2023/11/20 12:47:09;;;;;;;32.22;22.40;;;;;;;;;;6223023;28;20352;-96
2023/11/20 12:50:13;;;;;;;30.95;22.27;;;;;;;;;;6221361;28;20410;-96
2023/11/20 12:53:19;;;;;;;29.00;21.30;;;;;;;;;;6217575;28;20331;-96
2023/11/20 12:56:25;;;;;;;32.30;21.58;;;;;;;;;;6195968;28;20065;-96
2023/11/20 12:59:28;;;;;;;31.40;22.90;;;;;;;;;;6192040;28;20068;-94
2023/11/20 13:05:51;;;;;;;29.88;21.63;;;;;;;;;;6203183;28;20049;-92
2023/11/20 13:09:10;;;;;;;31.52;21.98;;;;;;;;;;6180781;28;20294;-96
2023/11/20 13:12:13;;;;;;;29.23;22.27;;;;;;;;;;6219501;28;20053;-95
2023/11/20 13:15:15;;;;;;;25.65;19.67;;;;;;;;;;6219430;28;20076;-96
2023/11/20 13:18:20;;;;;;;26.65;20.77;;;;;;;;;;6203574;28;20302;-95
2023/11/20 13:21:23;;;;;;;31.98;20.92;;;;;;;;;;6168079;28;20065;-96
2023/11/20 13:24:24;;;;;;;27.90;21.52;;;;;;;;;;6206808;28;20050;-96
2023/11/20 13:27:27;;;;;;;29.58;21.73;;;;;;;;;;6220347;28;20267;-94
2023/11/20 13:30:31;;;;;;;28.33;21.60;;;;;;;;;;6220676;28;20049;-96
2023/11/20 13:33:37;;;;;;;30.20;22.17;;;;;;;;;;6193621;28;20331;-95
2023/11/20 13:36:41;;;;;;;38.28;25.25;;;;;;;;;;6217093;28;20045;-94
2023/11/20 13:39:52;;;;;;;33.50;23.30;;;;;;;;;;6217525;28;20057;-93
2023/11/20 13:42:54;;;;;;;34.13;21.77;;;;;;;;;;6216204;28;20113;-96
2023/11/20 13:45:56;;;;;;;30.20;22.02;;;;;;;;;;6192130;28;20050;-96
2023/11/20 13:49:02;;;;;;;35.70;22.27;;;;;;;;;;6204818;28;20050;-95
2023/11/20 13:52:04;;;;;;;31.10;21.85;;;;;;;;;;6221404;28;20042;-96
2023/11/20 13:55:07;;;;;;;32.25;23.00;;;;;;;;;;6202371;28;20057;-96
2023/11/20 13:58:10;;;;;;;33.60;22.95;;;;;;;;;;6220169;28;20058;-96
2023/11/20 14:01:13;;;;;;;34.45;23.45;;;;;;;;;;6216136;28;20334;-96
2023/11/20 14:04:22;;;;;;;33.97;24.30;;;;;;;;;;6222346;28;20093;-96
2023/11/20 14:07:26;;;;;;;33.33;23.13;;;;;;;;;;6191457;28;20093;-96
2023/11/20 14:10:28;;;;;;;37.00;23.80;;;;;;;;;;6219757;28;20376;-96
2023/11/20 14:13:30;;;;;;;34.92;24.20;;;;;;;;;;6219355;28;20050;-96
2023/11/20 14:16:32;;;;;;;35.13;23.73;;;;;;;;;;6217001;28;20121;-96
2023/11/20 14:19:36;;;;;;;34.78;24.90;;;;;;;;;;6216962;28;20057;-96
2023/11/20 14:22:56;;;;;;;34.83;24.83;;;;;;;;;;6216934;28;20382;-96
2023/11/20 14:25:59;;;;;;;36.90;24.92;;;;;;;;;;6200758;28;20072;-96
2023/11/20 14:29:01;;;;;;;34.88;25.40;;;;;;;;;;6217139;28;20053;-96
2023/11/20 14:32:04;;;;;;;35.50;25.30;;;;;;;;;;6220170;28;20058;-96
2023/11/20 14:35:07;;;;;;;32.45;24.70;;;;;;;;;;6221511;28;20113;-96
2023/11/20 14:38:10;;;;;;;36.20;24.88;;;;;;;;;;6198180;28;20135;-96
2023/11/20 14:41:13;;;;;;;39.30;26.42;;;;;;;;;;6216233;28;20104;-95
2023/11/20 14:44:15;;;;;;;33.53;24.67;;;;;;;;;;6218261;28;20054;-96
2023/11/20 14:47:17;;;;;;;35.13;24.92;;;;;;;;;;6217121;28;20053;-96
2023/11/20 14:50:20;;;;;;;36.95;25.08;;;;;;;;;;6220040;28;20064;-96
2023/11/20 14:53:25;;;;;;;34.97;23.77;;;;;;;;;;6207122;28;20386;-94
2023/11/20 14:56:27;;;;;;;32.65;24.27;;;;;;;;;;6214818;28;20073;-96
2023/11/20 14:59:29;;;;;;;35.42;25.50;;;;;;;;;;6216597;28;20046;-96
2023/11/20 15:02:31;;;;;;;36.42;24.67;;;;;;;;;;6219039;28;20050;-95
2023/11/20 15:05:34;;;;;;;35.47;24.35;;;;;;;;;;6216136;28;20042;-96
2023/11/20 15:08:37;;;;;;;33.80;24.73;;;;;;;;;;6216725;28;20057;-96
2023/11/20 15:11:39;;;;;;;38.92;24.95;;;;;;;;;;6197227;28;20647;-95
2023/11/20 15:14:41;;;;;;;35.42;25.90;;;;;;;;;;6204614;28;20262;-96
2023/11/20 15:17:44;;;;;;;38.03;27.33;;;;;;;;;;6218813;28;20350;-94
2023/11/20 15:24:04;;;;;;;36.15;24.60;;;;;;;;;;6217710;28;20074;-96
2023/11/20 15:27:06;;;;;;;35.20;25.27;;;;;;;;;;6222914;28;20054;-96
2023/11/20 15:30:14;;;;;;;35.60;25.60;;;;;;;;;;6224256;28;20067;-95
2023/11/20 15:33:16;;;;;;;40.42;27.25;;;;;;;;;;6221812;28;20065;-93
2023/11/20 15:36:20;;;;;;;39.10;26.42;;;;;;;;;;6210410;28;20053;-96
2023/11/20 15:39:22;;;;;;;110.22;58.65;;;;;;;;;;6218709;28;20117;-93
2023/11/20 15:42:24;;;;;;;55.45;34.70;;;;;;;;;;6212614;28;20060;-96
2023/11/20 15:45:26;;;;;;;40.15;27.17;;;;;;;;;;6219972;28;20062;-96
2023/11/20 15:48:29;;;;;;;37.45;26.67;;;;;;;;;;6210166;28;20065;-96
2023/11/20 15:51:33;;;;;;;35.03;25.67;;;;;;;;;;6219188;28;20076;-96
2023/11/20 15:54:35;;;;;;;38.97;28.02;;;;;;;;;;6204339;28;20063;-94
2023/11/20 15:57:37;;;;;;;39.90;27.60;;;;;;;;;;6220998;28;20053;-95
2023/11/20 16:00:40;;;;;;;38.50;26.65;;;;;;;;;;6194875;28;20053;-94
2023/11/20 16:03:43;;;;;;;34.78;25.92;;;;;;;;;;6204174;28;20056;-96
2023/11/20 16:10:21;;;;;;;41.15;26.27;;;;;;;;;;6205574;28;20058;-96
2023/11/20 16:13:35;;;;;;;39.80;27.35;;;;;;;;;;6177949;28;20366;-96
2023/11/20 16:16:38;;;;;;;;;;;;;;;;;;6207069;28;20047;-96
2023/11/20 16:19:47;;;;;;;38.15;26.60;;;;;;;;;;6200752;28;19937;-95
2023/11/20 16:22:54;;;;;;;39.60;27.80;;;;;;;;;;6207937;28;20058;-95
2023/11/20 16:26:00;;;;;;;37.75;28.08;;;;;;;;;;6223474;28;20054;-96
2023/11/20 16:32:20;;;;;;;38.38;27.27;;;;;;;;;;6199626;28;20055;-96
2023/11/20 16:35:23;;;;;;;39.13;28.02;;;;;;;;;;6200875;28;20050;-95
2023/11/20 16:38:36;;;;;;;40.03;26.97;;;;;;;;;;6209868;28;20050;-96
2023/11/20 16:41:41;;;;;;;40.05;27.38;;;;;;;;;;6206490;28;20050;-96
2023/11/20 16:44:46;;;;;;;42.10;28.02;;;;;;;;;;6200880;28;20050;-95
2023/11/20 16:47:48;;;;;;;38.83;27.58;;;;;;;;;;6186269;28;20051;-95
2023/11/20 16:50:51;;;;;;;40.20;27.83;;;;;;;;;;6219940;28;20054;-96
2023/11/20 16:57:25;;;;;;;41.10;27.83;;;;;;;;;;6103873;28;20047;-95
2023/11/20 17:00:27;;;;;;;39.97;28.25;;;;;;;;;;6222590;28;20137;-96
2023/11/20 17:03:29;;;;;;;42.25;28.60;;;;;;;;;;6205882;28;20343;-95
2023/11/20 17:06:31;;;;;;;41.30;27.90;;;;;;;;;;6216393;28;20050;-96
2023/11/20 17:09:35;;;;;;;40.85;28.55;;;;;;;;;;6203348;28;20056;-96
2023/11/20 17:12:37;;;;;;;39.13;27.50;;;;;;;;;;6218006;28;20054;-96
2023/11/20 17:15:39;;;;;;;43.13;28.20;;;;;;;;;;6223335;28;20073;-96
2023/11/20 17:18:41;;;;;;;41.10;28.27;;;;;;;;;;6220370;28;20080;-96
2023/11/20 17:21:47;;;;;;;40.63;27.77;;;;;;;;;;6206973;28;20056;-96
2023/11/20 17:28:10;;;;;;;41.90;28.08;;;;;;;;;;6202945;28;20049;-96
2023/11/20 17:31:15;;;;;;;40.92;29.67;;;;;;;;;;6206795;28;20077;-96
2023/11/20 17:34:18;;;;;;;40.92;29.33;;;;;;;;;;6178897;28;20400;-96
2023/11/20 17:37:20;;;;;;;46.83;29.65;;;;;;;;;;6225458;28;20049;-96
2023/11/20 17:40:24;;;;;;;46.42;30.30;;;;;;;;;;6207440;28;20046;-96
2023/11/20 17:46:46;;;;;;;51.15;32.22;;;;;;;;;;6202180;28;20136;-96
2023/11/20 17:50:07;;;;;;;49.70;31.33;;;;;;;;;;6221072;28;20052;-96
2023/11/20 17:53:24;;;;;;;49.83;31.95;;;;;;;;;;6182027;28;20051;-96
2023/11/20 17:56:33;;;;;;;43.22;29.98;;;;;;;;;;6189657;28;20089;-96
2023/11/20 17:59:37;;;;;;;46.63;31.38;;;;;;;;;;6170535;28;20058;-96
2023/11/20 18:02:54;;;;;;;48.13;31.85;;;;;;;;;;6210277;28;20046;-96
2023/11/20 18:05:56;;;;;;;48.95;30.98;;;;;;;;;;6197878;28;20121;-96
2023/11/20 18:08:58;;;;;;;41.75;29.08;;;;;;;;;;6163696;28;20080;-96
2023/11/20 18:12:03;;;;;;;48.50;29.65;;;;;;;;;;6198703;28;20050;-96
2023/11/20 18:15:17;;;;;;;42.50;30.10;;;;;;;;;;6197805;28;20042;-96
2023/11/20 18:18:21;;;;;;;46.33;30.90;;;;;;;;;;6201097;28;20065;-96
2023/11/20 18:21:24;;;;;;;50.55;30.30;;;;;;;;;;6187804;28;20113;-95
2023/11/20 18:24:27;;;;;;;52.92;31.65;;;;;;;;;;6178817;28;20056;-94
2023/11/20 18:27:33;;;;;;;46.88;29.58;;;;;;;;;;6216959;28;20038;-96
2023/11/20 18:30:55;;;;;;;45.50;30.45;;;;;;;;;;6206777;28;20048;-96
2023/11/20 18:34:00;;;;;;;42.10;29.93;;;;;;;;;;6200528;28;20054;-96
2023/11/20 18:40:23;;;;;;;45.38;30.20;;;;;;;;;;6206045;28;20046;-96
2023/11/20 18:43:27;;;;;;;47.35;31.55;;;;;;;;;;6207116;28;20057;-96
2023/11/20 18:50:02;;;;;;;45.78;30.92;;;;;;;;;;6178654;28;20046;-96
2023/11/20 18:53:06;;;;;;;;;;;;;;;;;;6199833;28;20049;-96
2023/11/20 19:08:09;;;;;;;43.00;29.25;;;;;;;;;;6057882;29;19926;-96
2023/11/20 19:15:35;;;;;;;44.35;30.90;;;;;;;;;;6116889;29;20055;-96
2023/11/20 19:18:38;;;;;;;46.60;31.20;;;;;;;;;;6113659;28;20048;-96
2023/11/20 19:21:45;;;;;;;47.20;31.90;;;;;;;;;;6096604;29;20052;-96
2023/11/20 19:28:33;;;;;;;46.30;32.08;;;;;;;;;;6087733;29;20343;-96
2023/11/20 19:31:37;;;;;;;48.15;33.28;;;;;;;;;;6073659;29;20127;-96
2023/11/20 19:48:28;;;;;;;52.25;33.60;;;;;;;;;;6246336;28;20037;-96
2023/11/20 19:52:28;;;;;;;51.42;34.40;;;;;;;;;;6243619;28;20333;-96
2023/11/20 20:16:30;;;;;;;55.22;36.70;;;;;;;;;;6190528;28;20050;-96
2023/11/20 20:30:05;;;;;;;53.80;36.80;;;;;;;;;;6065406;29;20132;-96
2023/11/20 20:33:08;;;;;;;53.35;34.78;;;;;;;;;;6053778;29;20113;-96
2023/11/20 20:36:10;;;;;;;53.22;35.67;;;;;;;;;;6185779;22;20056;-83
2023/11/20 20:39:12;;;;;;;52.38;36.22;;;;;;;;;;6269651;28;20093;-84
2023/11/20 20:42:16;;;;;;;54.83;35.03;;;;;;;;;;6297728;28;20055;-84
2023/11/20 20:45:19;;;;;;;54.63;37.03;;;;;;;;;;6307971;22;20260;-96
2023/11/20 20:48:24;;;;;;;51.78;36.08;;;;;;;;;;6202625;28;20109;-95
2023/11/20 20:51:27;;;;;;;54.58;36.88;;;;;;;;;;6192130;28;20057;-96
2023/11/20 20:54:39;;;;;;;53.33;36.70;;;;;;;;;;6202217;28;20067;-96
2023/11/20 21:01:04;;;;;;;57.13;36.53;;;;;;;;;;6201960;28;20059;-95
2023/11/20 21:04:31;;;;;;;56.15;37.13;;;;;;;;;;6188350;28;20039;-96
2023/11/20 21:11:06;;;;;;;57.22;36.58;;;;;;;;;;6192162;28;20065;-96
2023/11/20 21:14:11;;;;;;;50.50;34.75;;;;;;;;;;6161651;28;20054;-96
2023/11/20 21:17:19;;;;;;;53.05;36.20;;;;;;;;;;6175494;28;20137;-96
2023/11/20 21:20:31;;;;;;;49.10;34.10;;;;;;;;;;6199690;28;20090;-96
2023/11/20 21:23:57;;;;;;;56.88;36.25;;;;;;;;;;6171756;28;20054;-96
2023/11/20 21:27:24;;;;;;;52.58;35.13;;;;;;;;;;6168522;28;20046;-96
2023/11/20 21:30:33;;;;;;;52.15;34.80;;;;;;;;;;6105169;29;20221;-95
2023/11/20 21:33:49;;;;;;;49.33;34.13;;;;;;;;;;6169330;28;20056;-96